Time;durP1;ratioP1;P1;durP2;ratioP2;P2;SDS_P1;SDS_P2;PMS_P1;PMS_P2;Temp;Humidity;BMP_temperature;BMP_pressure;BME280_temperature;BME280_humidity;BME280_pressure;Samples;Min_cycle;Max_cycle;Signal;HPM_P1;HPM_P2
2023/07/13 00:01:29;;;;;;;1.75;1.27;;;29.10;73.90;;;;;;10903726;32;20054;-72
2023/07/13 00:07:31;;;;;;;3.58;1.42;;;28.80;76.50;;;;;;10903636;32;20011;-72
2023/07/13 00:13:33;;;;;;;1.98;1.25;;;28.60;78.60;;;;;;10908852;32;20038;-72
2023/07/13 00:19:36;;;;;;;3.05;1.48;;;28.60;79.30;;;;;;10910720;32;20054;-73
2023/07/13 00:25:37;;;;;;;3.85;1.73;;;28.50;79.30;;;;;;10910643;32;20484;-72
2023/07/13 00:31:40;;;;;;;5.45;2.40;;;28.20;79.00;;;;;;10910340;32;20023;-73
2023/07/13 00:37:42;;;;;;;2.95;1.67;;;28.00;80.70;;;;;;10896341;32;20034;-72
2023/07/13 00:43:44;;;;;;;2.28;1.20;;;27.90;81.40;;;;;;10908980;32;20057;-72
2023/07/13 00:49:46;;;;;;;3.47;1.77;;;27.90;81.50;;;;;;10909840;32;20056;-74
2023/07/13 00:55:51;;;;;;;4.95;1.15;;;27.60;76.70;;;;;;10895649;32;20040;-72
2023/07/13 01:01:53;;;;;;;0.88;0.62;;;27.30;78.70;;;;;;10907902;32;20053;-72
2023/07/13 01:08:27;;;;;;;1.80;0.90;;;27.30;80.80;;;;;;10909146;32;20020;-73
2023/07/13 01:14:29;;;;;;;2.87;0.95;;;27.30;81.20;;;;;;10908975;32;20042;-74
2023/07/13 01:20:36;;;;;;;3.50;1.33;;;27.20;80.30;;;;;;10904620;32;20342;-73
2023/07/13 01:26:38;;;;;;;0.82;0.80;;;27.00;81.60;;;;;;10894605;32;20028;-72
2023/07/13 01:32:42;;;;;;;4.90;1.17;;;27.00;81.90;;;;;;10908278;32;20401;-72
2023/07/13 01:38:44;;;;;;;0.55;0.50;;;27.30;81.40;;;;;;10908025;32;20046;-73
2023/07/13 01:44:46;;;;;;;1.10;0.73;;;27.30;81.30;;;;;;10894106;32;20058;-73
2023/07/13 01:50:49;;;;;;;1.48;0.62;;;27.40;81.30;;;;;;10907678;32;20019;-73
2023/07/13 01:56:51;;;;;;;0.95;0.45;;;27.60;81.20;;;;;;10907451;32;20050;-72
2023/07/13 02:02:53;;;;;;;3.53;1.35;;;27.60;81.40;;;;;;10907156;32;20023;-73
2023/07/13 02:08:55;;;;;;;0.88;0.52;;;27.60;81.00;;;;;;10906954;32;20051;-72
2023/07/13 02:14:57;;;;;;;1.20;0.60;;;27.60;81.30;;;;;;10906820;32;20042;-73
2023/07/13 02:20:59;;;;;;;1.10;0.65;;;27.40;81.10;;;;;;10906568;32;20027;-73
2023/07/13 02:27:01;;;;;;;1.90;0.80;;;27.50;81.20;;;;;;10906259;32;20038;-73
2023/07/13 02:33:03;;;;;;;1.00;0.60;;;27.30;81.60;;;;;;10905591;32;20042;-73
2023/07/13 02:39:06;;;;;;;1.23;0.62;;;27.30;82.60;;;;;;10905741;32;20400;-73
2023/07/13 02:45:12;;;;;;;1.40;0.73;;;27.30;82.40;;;;;;10905694;32;20035;-73
2023/07/13 02:51:14;;;;;;;3.45;0.95;;;27.40;82.30;;;;;;10905443;32;20015;-73
2023/07/13 02:57:16;;;;;;;1.33;0.40;;;27.40;81.90;;;;;;10905312;32;20015;-73
2023/07/13 03:03:18;;;;;;;0.73;0.57;;;27.60;81.90;;;;;;10905096;32;20394;-73
2023/07/13 03:09:21;;;;;;;2.30;0.50;;;27.50;81.80;;;;;;10905108;32;20019;-73
2023/07/13 03:15:24;;;;;;;0.77;0.47;;;27.40;81.70;;;;;;10890696;32;20023;-73
2023/07/13 03:21:26;;;;;;;2.65;1.08;;;27.20;82.10;;;;;;10890980;32;20039;-73
2023/07/13 03:27:29;;;;;;;3.35;0.90;;;27.00;82.40;;;;;;10904414;32;20054;-73
2023/07/13 03:33:31;;;;;;;2.05;1.00;;;26.90;82.50;;;;;;10904388;32;20393;-73
2023/07/13 03:39:33;;;;;;;2.20;1.08;;;27.10;82.00;;;;;;10890378;32;20031;-73
2023/07/13 03:45:38;;;;;;;3.22;1.52;;;27.10;82.00;;;;;;10905942;32;20065;-73
2023/07/13 03:51:40;;;;;;;1.12;0.77;;;26.80;82.30;;;;;;10898461;32;20019;-73
2023/07/13 03:57:42;;;;;;;1.67;1.08;;;26.80;82.30;;;;;;10908779;32;20027;-73
2023/07/13 04:03:46;;;;;;;2.78;1.25;;;26.80;82.10;;;;;;10911341;32;20019;-73
2023/07/13 04:09:48;;;;;;;2.30;1.12;;;26.80;82.10;;;;;;10910527;32;20050;-73
2023/07/13 04:15:51;;;;;;;2.20;1.17;;;26.70;82.30;;;;;;10907021;32;20093;-73
2023/07/13 04:21:53;;;;;;;3.35;1.60;;;26.80;82.10;;;;;;10910701;32;20049;-73
2023/07/13 04:27:55;;;;;;;1.58;1.08;;;26.80;81.80;;;;;;10910554;32;20361;-73
2023/07/13 04:33:58;;;;;;;1.58;0.90;;;26.90;82.20;;;;;;10910417;32;20094;-73
2023/07/13 04:40:00;;;;;;;2.03;0.93;;;27.00;82.20;;;;;;10910141;32;20023;-73
2023/07/13 04:46:11;;;;;;;1.98;1.37;;;27.00;81.80;;;;;;10909954;32;20027;-74
2023/07/13 04:52:13;;;;;;;6.07;1.23;;;27.10;81.80;;;;;;10909744;32;20042;-73
2023/07/13 04:58:16;;;;;;;4.05;0.88;;;27.00;82.20;;;;;;10908017;32;20208;-73
2023/07/13 05:04:18;;;;;;;1.87;1.17;;;27.00;82.40;;;;;;10909240;32;20050;-74
2023/07/13 05:10:20;;;;;;;4.28;1.70;;;26.90;82.50;;;;;;10895425;32;20073;-73
2023/07/13 05:16:23;;;;;;;3.28;1.23;;;26.90;82.60;;;;;;10908893;32;20034;-73
2023/07/13 05:22:25;;;;;;;3.80;1.45;;;27.00;82.50;;;;;;10908621;32;20325;-73
2023/07/13 05:28:27;;;;;;;1.45;0.75;;;27.00;82.40;;;;;;10908551;32;20053;-74
2023/07/13 05:34:30;;;;;;;1.58;1.10;;;26.90;82.70;;;;;;10908420;32;20019;-73
2023/07/13 05:40:32;;;;;;;1.17;0.85;;;26.90;82.90;;;;;;10908056;32;20065;-73
2023/07/13 05:46:34;;;;;;;1.55;0.73;;;27.00;83.10;;;;;;10907845;32;20038;-73
2023/07/13 05:52:37;;;;;;;2.22;1.02;;;27.10;83.10;;;;;;10907586;32;20089;-73
2023/07/13 05:58:39;;;;;;;2.70;1.02;;;27.20;83.20;;;;;;10893940;32;20020;-72
2023/07/13 06:04:41;;;;;;;2.05;1.00;;;27.20;83.40;;;;;;10904087;32;20019;-73
2023/07/13 06:10:43;;;;;;;1.62;0.93;;;27.10;83.30;;;;;;10907003;32;20350;-73
2023/07/13 06:16:45;;;;;;;2.08;0.82;;;27.30;83.20;;;;;;10904923;32;20020;-73
2023/07/13 06:22:47;;;;;;;1.02;0.68;;;27.30;82.90;;;;;;10880277;32;20065;-73
2023/07/13 06:28:49;;;;;;;4.10;1.50;;;27.40;82.90;;;;;;10906373;32;20024;-73
2023/07/13 06:34:51;;;;;;;0.60;0.50;;;27.60;83.10;;;;;;10906188;32;20046;-73
2023/07/13 06:40:53;;;;;;;1.73;0.98;;;27.60;83.00;;;;;;10903635;32;20027;-73
2023/07/13 06:46:56;;;;;;;0.70;0.55;;;27.70;83.40;;;;;;10905743;32;20034;-72
2023/07/13 06:52:59;;;;;;;3.40;1.17;;;27.80;83.40;;;;;;10905440;32;20015;-73
2023/07/13 06:59:01;;;;;;;1.12;0.50;;;27.90;83.40;;;;;;10905343;32;20047;-73
2023/07/13 07:05:03;;;;;;;1.67;0.77;;;27.90;83.20;;;;;;10905219;32;20020;-72
2023/07/13 07:11:08;;;;;;;2.28;0.50;;;27.80;83.20;;;;;;10904550;32;20054;-72
2023/07/13 07:17:10;;;;;;;2.70;0.82;;;27.80;83.70;;;;;;10904734;32;20338;-73
2023/07/13 07:23:14;;;;;;;2.17;1.12;;;27.80;84.10;;;;;;10904201;32;20406;-72
2023/07/13 07:29:16;;;;;;;1.75;0.62;;;27.70;84.30;;;;;;10921671;27;20092;-73
2023/07/13 07:35:18;;;;;;;1.85;0.70;;;27.70;84.30;;;;;;10941891;32;20025;-73
2023/07/13 07:41:21;;;;;;;2.08;0.88;;;27.60;84.00;;;;;;10915642;32;20054;-73
2023/07/13 07:47:23;;;;;;;0.93;0.60;;;27.60;84.10;;;;;;10941654;32;20015;-73
2023/07/13 07:53:26;;;;;;;3.67;1.00;;;27.70;84.10;;;;;;10928084;32;20015;-72
2023/07/13 07:59:28;;;;;;;2.75;0.75;;;27.80;83.60;;;;;;10941419;32;20019;-72
2023/07/13 08:05:30;;;;;;;2.55;1.12;;;27.70;82.50;;;;;;10926518;32;20046;-73
2023/07/13 08:11:32;;;;;;;2.65;1.05;;;27.60;82.50;;;;;;10927410;32;20031;-72
2023/07/13 08:17:35;;;;;;;6.07;0.85;;;27.50;82.40;;;;;;10941039;32;20340;-72
2023/07/13 08:23:37;;;;;;;1.77;0.82;;;27.50;82.20;;;;;;10940938;32;20054;-72
2023/07/13 08:29:39;;;;;;;4.55;1.42;;;27.60;82.10;;;;;;10940607;32;20015;-72
2023/07/13 08:35:41;;;;;;;7.30;1.67;;;27.60;81.90;;;;;;10947303;32;20011;-71
2023/07/13 08:41:56;;;;;;;3.12;1.92;;;27.40;81.20;;;;;;10947761;32;20033;-72
2023/07/13 08:48:11;;;;;;;3.37;1.10;;;27.30;81.20;;;;;;10946752;32;20049;-71
2023/07/13 08:54:31;;;;;;;1.35;0.82;;;27.40;81.20;;;;;;10946707;32;20023;-72
2023/07/13 09:00:55;;;;;;;1.80;1.10;;;27.40;80.90;;;;;;10947256;32;20046;-72
2023/07/13 09:07:00;;;;;;;1.00;0.70;;;27.50;80.90;;;;;;10946875;32;20050;-72
2023/07/13 09:13:43;;;;;;;1.00;0.50;;;27.50;81.00;;;;;;10946913;32;20006;-73
2023/07/13 09:19:53;;;;;;;3.10;1.30;;;27.30;80.80;;;;;;10941963;32;20323;-72
2023/07/13 09:26:09;;;;;;;3.47;1.48;;;27.30;80.40;;;;;;10932277;32;20225;-73
2023/07/13 09:32:14;;;;;;;1.55;0.80;;;27.30;80.60;;;;;;10946045;32;20394;-72
2023/07/13 09:38:21;;;;;;;5.82;1.30;;;27.30;80.80;;;;;;10945786;32;20047;-73
2023/07/13 09:44:43;;;;;;;4.87;1.37;;;27.30;81.20;;;;;;10945187;32;20020;-73
2023/07/13 09:50:46;;;;;;;3.10;1.12;;;27.40;81.40;;;;;;10793328;33;20038;-73
2023/07/13 09:56:47;;;;;;;1.17;0.55;;;27.40;82.10;;;;;;10792051;33;20100;-72
2023/07/13 10:03:18;;;;;;;3.37;1.62;;;27.40;82.00;;;;;;10792944;33;20056;-73
2023/07/13 10:09:22;;;;;;;1.00;0.57;;;27.30;82.10;;;;;;10780459;33;20054;-73
2023/07/13 10:15:25;;;;;;;2.62;0.95;;;27.40;82.40;;;;;;10792266;33;20032;-73
2023/07/13 10:21:52;;;;;;;3.10;1.50;;;27.40;82.20;;;;;;10792063;33;20094;-73
2023/07/13 10:28:05;;;;;;;1.87;1.10;;;27.50;82.10;;;;;;10914988;32;20035;-72
2023/07/13 10:34:10;;;;;;;5.85;2.05;;;27.50;81.60;;;;;;10941408;32;20050;-72
2023/07/13 10:40:22;;;;;;;2.87;1.30;;;27.50;81.70;;;;;;10928989;32;20045;-73
2023/07/13 10:46:27;;;;;;;3.00;1.70;;;27.80;82.40;;;;;;10929824;32;20019;-72
2023/07/13 10:52:46;;;;;;;3.87;1.67;;;28.10;82.00;;;;;;10943260;32;20024;-73
2023/07/13 10:59:14;;;;;;;2.25;0.82;;;28.50;80.10;;;;;;10942438;32;20064;-72
2023/07/13 11:05:29;;;;;;;4.72;1.65;;;28.90;79.00;;;;;;10942784;32;20050;-73
2023/07/13 11:11:35;;;;;;;1.15;1.00;;;29.30;77.00;;;;;;10942549;32;20014;-73
2023/07/13 11:17:59;;;;;;;1.97;0.93;;;29.70;74.70;;;;;;10942375;32;20027;-73
2023/07/13 11:24:23;;;;;;;2.62;1.15;;;29.90;73.90;;;;;;10929810;32;20333;-73
2023/07/13 11:30:35;;;;;;;3.55;1.08;;;30.30;73.90;;;;;;10942124;32;20023;-73
2023/07/13 11:36:42;;;;;;;4.20;1.20;;;30.70;72.90;;;;;;10941948;32;20054;-72
2023/07/13 11:43:18;;;;;;;2.80;1.25;;;30.90;69.30;;;;;;10941621;32;20031;-73
2023/07/13 11:49:23;;;;;;;2.95;1.25;;;31.20;71.00;;;;;;10789794;32;20029;-73
2023/07/13 11:55:25;;;;;;;4.28;1.95;;;31.60;70.80;;;;;;10788556;33;20008;-73
2023/07/13 12:01:32;;;;;;;2.03;1.70;;;31.90;70.30;;;;;;10789617;33;20060;-73
2023/07/13 12:07:38;;;;;;;;;;;32.00;70.10;;;;;;10792607;33;20506;-73
2023/07/13 12:13:40;;;;;;;3.25;1.50;;;32.10;70.00;;;;;;10794487;33;19927;-73
2023/07/13 12:19:42;;;;;;;6.78;3.03;;;32.10;70.40;;;;;;10796423;33;20167;-73
2023/07/13 12:25:44;;;;;;;3.95;2.28;;;32.00;68.40;;;;;;10906778;32;20027;-73
2023/07/13 12:31:49;;;;;;;5.40;2.10;;;32.10;67.50;;;;;;10934101;32;20338;-73
2023/07/13 12:37:52;;;;;;;6.82;2.95;;;32.10;66.30;;;;;;10948048;32;20042;-73
2023/07/13 12:43:57;;;;;;;3.85;2.70;;;32.20;66.80;;;;;;10947745;32;20046;-73
2023/07/13 12:50:06;;;;;;;6.68;2.75;;;32.20;68.70;;;;;;10947493;32;20191;-73
2023/07/13 12:56:19;;;;;;;3.28;2.45;;;32.40;67.50;;;;;;10947495;32;20023;-73
2023/07/13 13:02:34;;;;;;;7.10;4.03;;;32.60;66.40;;;;;;10947134;32;20019;-73
2023/07/13 13:08:36;;;;;;;4.45;2.42;;;32.60;68.10;;;;;;10946999;32;20019;-72
2023/07/13 13:14:39;;;;;;;5.82;2.83;;;32.40;67.60;;;;;;10942898;32;20023;-73
2023/07/13 13:20:41;;;;;;;6.50;3.60;;;32.60;66.10;;;;;;10932216;32;20039;-72
2023/07/13 13:26:45;;;;;;;6.03;2.42;;;32.80;64.70;;;;;;10943866;32;20042;-72
2023/07/13 13:32:48;;;;;;;7.80;2.90;;;32.80;64.10;;;;;;10945558;32;20058;-73
2023/07/13 13:38:50;;;;;;;6.25;3.15;;;32.80;63.80;;;;;;10945949;32;20019;-72
2023/07/13 13:44:52;;;;;;;6.28;3.17;;;32.60;63.60;;;;;;10945722;32;20027;-72
2023/07/13 13:50:54;;;;;;;3.15;2.08;;;32.50;62.80;;;;;;10945569;32;20014;-72
2023/07/13 13:56:58;;;;;;;7.95;3.12;;;32.40;63.20;;;;;;10942078;32;20063;-73
2023/07/13 14:03:01;;;;;;;6.78;3.37;;;32.50;62.80;;;;;;10944641;32;20306;-72
2023/07/13 14:09:08;;;;;;;6.43;2.83;;;32.30;63.90;;;;;;10930891;32;20034;-72
2023/07/13 14:15:20;;;;;;;5.28;3.03;;;31.90;63.40;;;;;;10913989;32;20027;-72
2023/07/13 14:21:22;;;;;;;5.65;3.05;;;31.80;64.70;;;;;;10943968;32;20345;-72
2023/07/13 14:27:25;;;;;;;10.07;3.65;;;31.80;64.40;;;;;;10929949;32;20022;-72
2023/07/13 14:33:27;;;;;;;3.45;2.12;;;31.70;64.40;;;;;;10943660;32;20065;-72
2023/07/13 14:39:29;;;;;;;3.97;2.08;;;31.70;64.50;;;;;;10943368;32;20027;-72
2023/07/13 14:45:31;;;;;;;5.60;2.70;;;31.60;64.80;;;;;;10943499;32;20035;-72
2023/07/13 14:51:34;;;;;;;4.50;2.25;;;31.60;65.10;;;;;;10941824;32;20049;-73
2023/07/13 14:57:36;;;;;;;2.92;2.00;;;31.50;65.20;;;;;;10943122;32;20020;-72
2023/07/13 15:03:44;;;;;;;4.32;2.60;;;31.40;65.70;;;;;;10942820;32;20019;-73
2023/07/13 15:09:50;;;;;;;5.07;2.55;;;31.40;66.20;;;;;;10928837;32;20028;-73
2023/07/13 15:15:54;;;;;;;6.07;1.97;;;31.30;67.00;;;;;;10942347;32;20307;-73
2023/07/13 15:21:57;;;;;;;3.40;2.08;;;31.30;67.60;;;;;;10941754;32;20042;-73
2023/07/13 15:28:01;;;;;;;2.60;1.52;;;31.20;67.90;;;;;;10946222;27;20039;-73
2023/07/13 15:34:10;;;;;;;2.37;1.67;;;31.10;69.20;;;;;;10927396;32;20053;-73
2023/07/13 15:40:14;;;;;;;4.57;1.92;;;31.10;69.20;;;;;;10941886;32;20015;-72
2023/07/13 15:46:17;;;;;;;4.03;2.33;;;30.80;67.60;;;;;;10941296;32;20023;-72
2023/07/13 15:52:23;;;;;;;3.45;2.35;;;30.60;69.10;;;;;;10941107;32;20019;-72
2023/07/13 15:58:26;;;;;;;6.37;2.42;;;30.30;68.40;;;;;;10940961;32;20447;-73
2023/07/13 16:04:28;;;;;;;4.60;2.15;;;30.10;69.50;;;;;;10940959;32;20077;-73
2023/07/13 16:10:33;;;;;;;2.87;1.70;;;29.90;71.00;;;;;;10937957;32;20417;-73
2023/07/13 16:16:35;;;;;;;1.62;1.05;;;29.60;72.80;;;;;;10940761;32;20011;-73
2023/07/13 16:22:39;;;;;;;3.97;1.98;;;29.40;73.40;;;;;;10938474;32;20023;-73
2023/07/13 16:28:43;;;;;;;10.73;2.47;;;29.40;73.00;;;;;;10923518;32;20315;-73
2023/07/13 16:34:45;;;;;;;6.90;2.65;;;29.40;73.30;;;;;;10940688;32;20019;-73
2023/07/13 16:40:48;;;;;;;2.15;1.35;;;29.70;74.00;;;;;;10924547;32;20022;-73
2023/07/13 16:46:55;;;;;;;4.72;1.90;;;29.80;73.70;;;;;;10940650;32;20027;-72
2023/07/13 16:52:58;;;;;;;;;;;29.70;72.00;;;;;;10907936;32;20024;-73
2023/07/13 16:59:00;;;;;;;2.92;1.48;;;29.60;72.70;;;;;;10891434;32;19941;-73
2023/07/13 17:05:04;;;;;;;3.45;1.30;;;29.60;72.60;;;;;;10909216;32;20077;-72
2023/07/13 17:11:30;;;;;;;4.93;1.55;;;29.40;72.30;;;;;;10909294;32;20113;-72
2023/07/13 17:17:42;;;;;;;3.00;1.70;;;29.30;72.20;;;;;;10895371;32;20041;-72
2023/07/13 17:23:44;;;;;;;3.58;1.75;;;29.40;72.20;;;;;;10908719;32;20024;-72
2023/07/13 17:29:49;;;;;;;2.25;1.62;;;29.50;72.80;;;;;;10908396;32;20319;-73
2023/07/13 17:35:51;;;;;;;1.85;1.23;;;29.60;73.10;;;;;;10908312;32;20392;-73
2023/07/13 17:41:54;;;;;;;1.35;1.08;;;29.60;73.30;;;;;;10933768;32;20344;-73
2023/07/13 17:47:59;;;;;;;4.20;1.02;;;29.70;72.90;;;;;;10983221;32;20034;-73
2023/07/13 17:54:01;;;;;;;3.10;1.40;;;29.60;72.10;;;;;;10971507;32;20027;-72
2023/07/13 18:00:25;;;;;;;2.83;1.37;;;29.90;71.50;;;;;;10907396;32;20037;-74
2023/07/13 18:06:31;;;;;;;2.85;1.30;;;30.70;70.30;;;;;;10906774;32;20023;-74
2023/07/13 18:12:34;;;;;;;1.45;0.95;;;30.80;70.10;;;;;;10907195;32;20020;-74
2023/07/13 18:18:37;;;;;;;1.95;0.98;;;30.30;71.50;;;;;;10906873;32;20410;-74
2023/07/13 18:24:39;;;;;;;4.75;1.87;;;29.90;72.90;;;;;;10906245;32;20023;-74
2023/07/13 18:30:43;;;;;;;3.20;1.30;;;29.70;73.70;;;;;;10903495;32;20406;-74
2023/07/13 18:36:46;;;;;;;2.35;1.27;;;29.40;74.30;;;;;;10903492;32;20023;-75
2023/07/13 18:42:48;;;;;;;2.67;1.45;;;29.20;74.50;;;;;;10905892;32;20179;-74
2023/07/13 18:48:52;;;;;;;6.87;1.12;;;28.90;74.60;;;;;;10904425;32;20330;-74
2023/07/13 18:54:54;;;;;;;2.00;1.08;;;28.80;75.20;;;;;;10905558;32;20020;-74
2023/07/13 19:01:01;;;;;;;5.87;1.90;;;28.70;75.60;;;;;;10905128;32;20019;-74
2023/07/13 19:07:04;;;;;;;2.72;1.65;;;28.60;75.80;;;;;;10900991;32;20394;-75
2023/07/13 19:13:10;;;;;;;4.22;1.25;;;28.50;76.00;;;;;;10904827;32;20334;-74
2023/07/13 19:19:15;;;;;;;2.40;1.35;;;28.40;76.20;;;;;;10890202;32;20070;-75
2023/07/13 19:25:17;;;;;;;1.90;0.98;;;28.30;76.30;;;;;;10904486;32;20401;-74
2023/07/13 19:31:32;;;;;;;2.62;1.17;;;28.20;76.60;;;;;;10904280;32;20028;-74
2023/07/13 19:37:36;;;;;;;1.77;1.20;;;28.10;76.50;;;;;;10904288;32;20023;-75
2023/07/13 19:43:38;;;;;;;7.32;1.70;;;27.90;76.70;;;;;;10904034;32;20063;-74
2023/07/13 19:49:41;;;;;;;2.60;1.33;;;27.80;76.90;;;;;;10903897;32;20020;-75
2023/07/13 19:55:43;;;;;;;4.55;1.48;;;27.80;77.00;;;;;;10903697;32;20050;-74
2023/07/13 20:01:45;;;;;;;1.87;1.25;;;27.80;77.10;;;;;;10890242;32;20027;-73
2023/07/13 20:07:55;;;;;;;4.95;2.08;;;27.80;77.20;;;;;;10903502;32;20019;-74
2023/07/13 20:13:57;;;;;;;2.00;1.27;;;27.90;77.60;;;;;;10903402;32;20023;-74
2023/07/13 20:20:01;;;;;;;4.35;1.73;;;27.80;77.70;;;;;;10903453;32;20357;-74
2023/07/13 20:26:04;;;;;;;2.72;1.52;;;27.70;77.80;;;;;;10889550;32;20333;-74
2023/07/13 20:32:10;;;;;;;6.93;1.20;;;27.80;77.70;;;;;;10910388;32;20023;-74
2023/07/13 20:38:15;;;;;;;3.85;1.60;;;27.80;77.70;;;;;;10906470;32;20024;-74
2023/07/13 20:44:17;;;;;;;7.72;2.08;;;27.80;77.80;;;;;;10910124;32;20050;-74
2023/07/13 20:50:27;;;;;;;4.50;1.55;;;27.80;78.00;;;;;;10910042;32;20050;-74
2023/07/13 20:56:29;;;;;;;4.57;2.33;;;27.70;78.90;;;;;;10909891;32;20027;-74
2023/07/13 21:02:33;;;;;;;2.40;1.65;;;27.60;79.20;;;;;;10909541;32;20023;-74
2023/07/13 21:08:35;;;;;;;3.90;1.98;;;27.60;79.10;;;;;;10907397;32;20027;-74
2023/07/13 21:14:37;;;;;;;3.72;1.73;;;27.50;79.20;;;;;;10909176;32;20019;-74
2023/07/13 21:20:41;;;;;;;4.90;2.20;;;27.50;79.60;;;;;;10894997;32;20039;-74
2023/07/13 21:26:44;;;;;;;6.43;2.00;;;27.40;79.40;;;;;;10908828;32;20016;-74
2023/07/13 21:32:49;;;;;;;3.17;2.17;;;27.40;79.40;;;;;;10908504;32;20050;-74
2023/07/13 21:38:59;;;;;;;4.10;1.98;;;27.30;79.70;;;;;;10907763;32;20333;-74
2023/07/13 21:45:01;;;;;;;3.03;1.73;;;27.30;80.30;;;;;;10908078;32;20032;-74
2023/07/13 21:51:30;;;;;;;3.30;2.37;;;27.30;80.40;;;;;;10907732;32;20058;-74
2023/07/13 21:57:32;;;;;;;11.98;2.85;;;27.40;80.00;;;;;;10928402;32;20043;-74
2023/07/13 22:03:36;;;;;;;2.65;1.85;;;27.30;79.90;;;;;;10944818;32;20026;-74
2023/07/13 22:09:38;;;;;;;3.33;2.20;;;27.20;80.00;;;;;;10941046;32;20062;-74
2023/07/13 22:15:41;;;;;;;2.72;2.00;;;27.00;80.30;;;;;;10944843;32;20042;-73
2023/07/13 22:21:43;;;;;;;8.82;2.97;;;27.00;81.00;;;;;;10943438;32;20035;-73
2023/07/13 22:27:46;;;;;;;4.62;1.80;;;27.00;81.50;;;;;;10944314;32;20049;-74
2023/07/13 22:33:52;;;;;;;4.62;1.80;;;27.00;81.50;;;;;;10944127;32;20456;-74
2023/07/13 22:39:54;;;;;;;4.30;1.55;;;27.00;81.60;;;;;;10943060;32;20019;-73
2023/07/13 22:46:16;;;;;;;3.55;2.15;;;27.00;81.70;;;;;;10943651;32;20027;-73
2023/07/13 22:52:18;;;;;;;5.07;2.53;;;26.80;81.90;;;;;;10943415;32;20019;-73
2023/07/13 22:58:39;;;;;;;6.25;3.05;;;26.80;82.20;;;;;;10942312;32;20049;-72
2023/07/13 23:04:41;;;;;;;3.55;2.35;;;26.60;82.40;;;;;;10942926;32;20019;-73
2023/07/13 23:10:53;;;;;;;8.00;2.95;;;26.60;82.70;;;;;;10941914;32;20023;-73
2023/07/13 23:17:00;;;;;;;7.53;3.83;;;26.60;82.50;;;;;;10942747;32;20022;-73
2023/07/13 23:24:04;;;;;;;4.80;3.25;;;26.50;82.80;;;;;;10936002;32;20057;-73
2023/07/13 23:30:08;;;;;;;5.30;2.87;;;26.50;82.80;;;;;;10373883;32;17298414;-73
2023/07/13 23:36:16;;;;;;;4.55;2.37;;;26.60;83.00;;;;;;10863986;32;20028;-73
2023/07/13 23:42:18;;;;;;;7.07;3.90;;;26.60;83.20;;;;;;10863253;32;20381;-73
2023/07/13 23:48:20;;;;;;;4.72;2.92;;;26.60;83.50;;;;;;10863592;32;20581;-73
2023/07/13 23:54:24;;;;;;;4.22;2.20;;;26.50;83.60;;;;;;10884132;32;20409;-73
